Isola Di Capri — IBBY — position and weather

sailwx.info

Track history (hours):
 
Tides and Currents Weather Stations Pressure Air Temp Water Temp Dewpoint Dewpoint Depression Visibility Wind Speed Wind Dir Waves Ship Positions

Isola Di Capri

Last reported at 2018-Feb-17 19:10 UTC. Time now 2018-Feb-18 03:41 UTC.
Position N 40°46' E 014°06'.

Length 71 m; draft 2.3 m.

Type: Ship. MMSI: 247300000.

Date/timePositionNaut miles runAvg speedWind from/ knotsBaromVisibWave heightAir tempDewpointWater temp
2018-Feb-17 19:10N 40°46' E 014°06'216.1
2018-Feb-17 19:00N 40°47' E 014°09'7 5.3
2018-Feb-17 17:44N 40°49' E 014°17'415.5
2018-Feb-17 17:30N 40°47' E 014°13'9 3.7
2018-Feb-17 15:10N 40°46' E 014°02'316.0
2018-Feb-17 14:59N 40°46' E 014°06'8 5.0
2018-Feb-17 13:20N 40°49' E 014°16'615.9
2018-Feb-17 12:59N 40°47' E 014°09'6 1.9
2018-Feb-17 10:02N 40°46' E 014°02'2 6.6
2018-Feb-17 09:40N 40°46' E 014°05'1 0.6
2018-Feb-17 08:15N 40°47' E 014°06'3 0.2
2018-Feb-16 19:19N 40°46' E 014°02'516.1
2018-Feb-16 19:00N 40°46' E 014°09'7 6.2
2018-Feb-16 17:54N 40°50' E 014°17'615.2
2018-Feb-16 17:29N 40°46' E 014°10'4 1.7
2018-Feb-16 15:06N 40°46' E 014°05'115.5
2018-Feb-16 15:00N 40°46' E 014°07'8 4.8
2018-Feb-16 13:24N 40°49' E 014°16'715.4
2018-Feb-16 12:58N 40°46' E 014°08'5 1.7
2018-Feb-16 10:05N 40°46' E 014°02'2 5.1
2018-Feb-16 09:46N 40°46' E 014°04'3 1.7
2018-Feb-16 08:19N 40°48' E 014°06'8 1.0
2018-Feb-15 23:50N 40°45' E 013°56'0 0.0
2018-Feb-15 23:30N 40°45' E 013°56'4 1.1
2018-Feb-15 19:32N 40°46' E 014°02'0 0.6
2018-Feb-15 19:19N 40°46' E 014°02'516.2
2018-Feb-15 19:00N 40°47' E 014°08'7 5.6
2018-Feb-15 17:45N 40°49' E 014°17'415.0
2018-Feb-15 17:30N 40°47' E 014°13'8 3.5
2018-Feb-15 15:11N 40°46' E 014°02'316.0
2018-Feb-15 14:59N 40°46' E 014°06'8 4.6
2018-Feb-15 13:20N 40°48' E 014°16'515.6
2018-Feb-15 13:00N 40°46' E 014°09'6 1.8
2018-Feb-15 09:53N 40°46' E 014°02'5 3.2
2018-Feb-15 08:25N 40°49' E 014°07'5 0.4
2018-Feb-14 19:19N 40°46' E 014°02'516.0
2018-Feb-14 19:00N 40°47' E 014°09'7 6.0
2018-Feb-14 17:53N 40°50' E 014°16'410.9
2018-Feb-14 17:30N 40°47' E 014°13'8 3.6
2018-Feb-14 15:13N 40°46' E 014°02'315.5
2018-Feb-14 15:00N 40°46' E 014°06'8 5.2
2018-Feb-14 13:28N 40°49' E 014°16'714.7
2018-Feb-14 13:00N 40°46' E 014°08'5 1.8
2018-Feb-14 10:02N 40°46' E 014°01'3 7.4
2018-Feb-14 09:35N 40°47' E 014°06'3 2.7
2018-Feb-14 08:28N 40°49' E 014°07'5 0.4
2018-Feb-13 19:20N 40°46' E 014°02'515.6
2018-Feb-13 19:00N 40°47' E 014°09'7 5.0
2018-Feb-13 17:42N 40°49' E 014°17'315.8
2018-Feb-13 17:30N 40°47' E 014°13'815.9
2018-Feb-13 16:59N 40°46' E 014°03'1 0.4
2018-Feb-13 15:13N 40°46' E 014°02'212.0
2018-Feb-13 15:00N 40°46' E 014°05'815.1
2018-Feb-13 14:30N 40°48' E 014°15'1 1.0
2018-Feb-13 13:17N 40°49' E 014°16'517.6
2018-Feb-13 13:01N 40°46' E 014°10'6 2.1
2018-Feb-13 10:00N 40°46' E 014°02'5 3.2
2018-Feb-13 08:27N 40°49' E 014°07'4 0.3
2018-Feb-12 19:18N 40°46' E 014°03'515.6
2018-Feb-12 18:59N 40°47' E 014°10'5 3.6
2018-Feb-12 17:42N 40°49' E 014°16'315.9
2018-Feb-12 17:30N 40°47' E 014°12'8 3.4
2018-Feb-12 15:14N 40°46' E 014°02'415.3
2018-Feb-12 15:00N 40°46' E 014°07'7 4.2
2018-Feb-12 13:18N 40°49' E 014°16'515.7
2018-Feb-12 13:00N 40°47' E 014°10'6 1.9
2018-Feb-12 09:48N 40°46' E 014°02'412.4
2018-Feb-12 09:29N 40°49' E 014°06'0 0.1
2018-Feb-12 08:22N 40°49' E 014°06'4 0.3
2018-Feb-11 19:26N 40°46' E 014°02'715.5
2018-Feb-11 18:58N 40°47' E 014°11'5 4.0
2018-Feb-11 17:42N 40°49' E 014°17'315.4
2018-Feb-11 17:29N 40°47' E 014°13'6 2.2
2018-Feb-11 14:58N 40°46' E 014°06'9 5.5
2018-Feb-11 13:22N 40°49' E 014°17'615.6
2018-Feb-11 13:00N 40°47' E 014°10'6 2.3
2018-Feb-11 10:11N 40°46' E 014°02'0 1.5
2018-Feb-11 09:57N 40°46' E 014°02'5 3.4
2018-Feb-11 08:33N 40°49' E 014°07'212.5
2018-Feb-11 08:26N 40°48' E 014°06'4 0.4
2018-Feb-10 22:01N 40°46' E 014°02'0 1.1
2018-Feb-10 21:53N 40°46' E 014°02'614.7
2018-Feb-10 21:29N 40°47' E 014°09'5 3.1
2018-Feb-10 19:44N 40°49' E 014°16'416.2
2018-Feb-10 19:30N 40°47' E 014°12'8 4.3
2018-Feb-10 17:43N 40°46' E 014°02'1 5.0
2018-Feb-10 17:26N 40°46' E 014°04'716.7
2018-Feb-10 17:01N 40°47' E 014°13'4 2.7
2018-Feb-10 15:36N 40°50' E 014°16'115.5
2018-Feb-10 15:30N 40°49' E 014°17'1019.6
2018-Feb-10 15:00N 40°39' E 014°16'4 4.1
2018-Feb-10 14:06N 40°36' E 014°18'220.4
2018-Feb-10 14:00N 40°37' E 014°19'3 5.6
2018-Feb-10 13:30N 40°38' E 014°23'2 3.1
2018-Feb-10 13:00N 40°38' E 014°21'5 5.0
2018-Feb-10 12:01N 40°35' E 014°16'021.1
2018-Feb-10 11:59N 40°35' E 014°16'1021.1
2018-Feb-10 11:30N 40°46' E 014°17'3 2.5
2018-Feb-10 10:11N 40°49' E 014°17'420.5
2018-Feb-10 10:00N 40°45' E 014°17'9 7.5
2018-Feb-10 08:44N 40°36' E 014°17'418.7
2018-Feb-10 08:30N 40°38' E 014°22'3 5.1
2018-Feb-10 08:01N 40°38' E 014°19'2 2.6
2018-Feb-10 07:07N 40°36' E 014°17'219.7
2018-Feb-10 07:01N 40°37' E 014°19'2 3.3
2018-Feb-10 06:31N 40°38' E 014°21'5 0.4
2018-Feb-09 19:30N 40°41' E 014°16'5 0.8
2018-Feb-09 13:01N 40°38' E 014°22'5 1.5
2018-Feb-09 09:30N 40°36' E 014°15'5 5.4
2018-Feb-09 08:30N 40°38' E 014°22'1 2.8
2018-Feb-09 08:00N 40°38' E 014°20'1 0.5
2018-Feb-09 07:00N 40°38' E 014°20'1 1.8
2018-Feb-09 06:30N 40°39' E 014°21'4 0.4
2018-Feb-08 19:30N 40°41' E 014°17'  
Track history (hours):
 
Tides and Currents Weather Stations Pressure Air Temp Water Temp Dewpoint Dewpoint Depression Visibility Wind Speed Wind Dir Waves Ship Positions

Isola Di Capri

Last reported at 2018-Feb-17 19:10 UTC. Time now 2018-Feb-18 03:41 UTC.
Position N 40°46' E 014°06'.

Length 71 m; draft 2.3 m.

Type: Ship. MMSI: 247300000.

Date/timePositionNaut miles runAvg speedWind from/ knotsBaromVisibWave heightAir tempDewpointWater temp
2018-Feb-17 19:10N 40°46' E 014°06'216.1
2018-Feb-17 19:00N 40°47' E 014°09'7 5.3
2018-Feb-17 17:44N 40°49' E 014°17'415.5
2018-Feb-17 17:30N 40°47' E 014°13'9 3.7
2018-Feb-17 15:10N 40°46' E 014°02'316.0
2018-Feb-17 14:59N 40°46' E 014°06'8 5.0
2018-Feb-17 13:20N 40°49' E 014°16'615.9
2018-Feb-17 12:59N 40°47' E 014°09'6 1.9
2018-Feb-17 10:02N 40°46' E 014°02'2 6.6
2018-Feb-17 09:40N 40°46' E 014°05'1 0.6
2018-Feb-17 08:15N 40°47' E 014°06'3 0.2
2018-Feb-16 19:19N 40°46' E 014°02'516.1
2018-Feb-16 19:00N 40°46' E 014°09'7 6.2
2018-Feb-16 17:54N 40°50' E 014°17'615.2
2018-Feb-16 17:29N 40°46' E 014°10'4 1.7
2018-Feb-16 15:06N 40°46' E 014°05'115.5
2018-Feb-16 15:00N 40°46' E 014°07'8 4.8
2018-Feb-16 13:24N 40°49' E 014°16'715.4
2018-Feb-16 12:58N 40°46' E 014°08'5 1.7
2018-Feb-16 10:05N 40°46' E 014°02'2 5.1
2018-Feb-16 09:46N 40°46' E 014°04'3 1.7
2018-Feb-16 08:19N 40°48' E 014°06'8 1.0
2018-Feb-15 23:50N 40°45' E 013°56'0 0.0
2018-Feb-15 23:30N 40°45' E 013°56'4 1.1
2018-Feb-15 19:32N 40°46' E 014°02'0 0.6
2018-Feb-15 19:19N 40°46' E 014°02'516.2
2018-Feb-15 19:00N 40°47' E 014°08'7 5.6
2018-Feb-15 17:45N 40°49' E 014°17'415.0
2018-Feb-15 17:30N 40°47' E 014°13'8 3.5
2018-Feb-15 15:11N 40°46' E 014°02'316.0
2018-Feb-15 14:59N 40°46' E 014°06'8 4.6
2018-Feb-15 13:20N 40°48' E 014°16'515.6
2018-Feb-15 13:00N 40°46' E 014°09'6 1.8
2018-Feb-15 09:53N 40°46' E 014°02'5 3.2
2018-Feb-15 08:25N 40°49' E 014°07'5 0.4
2018-Feb-14 19:19N 40°46' E 014°02'516.0
2018-Feb-14 19:00N 40°47' E 014°09'7 6.0
2018-Feb-14 17:53N 40°50' E 014°16'410.9
2018-Feb-14 17:30N 40°47' E 014°13'8 3.6
2018-Feb-14 15:13N 40°46' E 014°02'315.5
2018-Feb-14 15:00N 40°46' E 014°06'8 5.2
2018-Feb-14 13:28N 40°49' E 014°16'714.7
2018-Feb-14 13:00N 40°46' E 014°08'5 1.8
2018-Feb-14 10:02N 40°46' E 014°01'3 7.4
2018-Feb-14 09:35N 40°47' E 014°06'3 2.7
2018-Feb-14 08:28N 40°49' E 014°07'5 0.4
2018-Feb-13 19:20N 40°46' E 014°02'515.6
2018-Feb-13 19:00N 40°47' E 014°09'7 5.0
2018-Feb-13 17:42N 40°49' E 014°17'315.8
2018-Feb-13 17:30N 40°47' E 014°13'815.9
2018-Feb-13 16:59N 40°46' E 014°03'1 0.4
2018-Feb-13 15:13N 40°46' E 014°02'212.0
2018-Feb-13 15:00N 40°46' E 014°05'815.1
2018-Feb-13 14:30N 40°48' E 014°15'1 1.0
2018-Feb-13 13:17N 40°49' E 014°16'517.6
2018-Feb-13 13:01N 40°46' E 014°10'6 2.1
2018-Feb-13 10:00N 40°46' E 014°02'5 3.2
2018-Feb-13 08:27N 40°49' E 014°07'4 0.3
2018-Feb-12 19:18N 40°46' E 014°03'515.6
2018-Feb-12 18:59N 40°47' E 014°10'5 3.6
2018-Feb-12 17:42N 40°49' E 014°16'315.9
2018-Feb-12 17:30N 40°47' E 014°12'8 3.4
2018-Feb-12 15:14N 40°46' E 014°02'415.3
2018-Feb-12 15:00N 40°46' E 014°07'7 4.2
2018-Feb-12 13:18N 40°49' E 014°16'515.7
2018-Feb-12 13:00N 40°47' E 014°10'6 1.9
2018-Feb-12 09:48N 40°46' E 014°02'412.4
2018-Feb-12 09:29N 40°49' E 014°06'0 0.1
2018-Feb-12 08:22N 40°49' E 014°06'4 0.3
2018-Feb-11 19:26N 40°46' E 014°02'715.5
2018-Feb-11 18:58N 40°47' E 014°11'5 4.0
2018-Feb-11 17:42N 40°49' E 014°17'315.4
2018-Feb-11 17:29N 40°47' E 014°13'6 2.2
2018-Feb-11 14:58N 40°46' E 014°06'9 5.5
2018-Feb-11 13:22N 40°49' E 014°17'615.6
2018-Feb-11 13:00N 40°47' E 014°10'6 2.3
2018-Feb-11 10:11N 40°46' E 014°02'0 1.5
2018-Feb-11 09:57N 40°46' E 014°02'5 3.4
2018-Feb-11 08:33N 40°49' E 014°07'212.5
2018-Feb-11 08:26N 40°48' E 014°06'4 0.4
2018-Feb-10 22:01N 40°46' E 014°02'0 1.1
2018-Feb-10 21:53N 40°46' E 014°02'614.7
2018-Feb-10 21:29N 40°47' E 014°09'5 3.1
2018-Feb-10 19:44N 40°49' E 014°16'416.2
2018-Feb-10 19:30N 40°47' E 014°12'8 4.3
2018-Feb-10 17:43N 40°46' E 014°02'1 5.0
2018-Feb-10 17:26N 40°46' E 014°04'716.7
2018-Feb-10 17:01N 40°47' E 014°13'4 2.7
2018-Feb-10 15:36N 40°50' E 014°16'115.5
2018-Feb-10 15:30N 40°49' E 014°17'1019.6
2018-Feb-10 15:00N 40°39' E 014°16'4 4.1
2018-Feb-10 14:06N 40°36' E 014°18'220.4
2018-Feb-10 14:00N 40°37' E 014°19'3 5.6
2018-Feb-10 13:30N 40°38' E 014°23'2 3.1
2018-Feb-10 13:00N 40°38' E 014°21'5 5.0
2018-Feb-10 12:01N 40°35' E 014°16'021.1
2018-Feb-10 11:59N 40°35' E 014°16'1021.1
2018-Feb-10 11:30N 40°46' E 014°17'3 2.5
2018-Feb-10 10:11N 40°49' E 014°17'420.5
2018-Feb-10 10:00N 40°45' E 014°17'9 7.5
2018-Feb-10 08:44N 40°36' E 014°17'418.7
2018-Feb-10 08:30N 40°38' E 014°22'3 5.1
2018-Feb-10 08:01N 40°38' E 014°19'2 2.6
2018-Feb-10 07:07N 40°36' E 014°17'219.7
2018-Feb-10 07:01N 40°37' E 014°19'2 3.3
2018-Feb-10 06:31N 40°38' E 014°21'5 0.4
2018-Feb-09 19:30N 40°41' E 014°16'5 0.8
2018-Feb-09 13:01N 40°38' E 014°22'5 1.5
2018-Feb-09 09:30N 40°36' E 014°15'5 5.4
2018-Feb-09 08:30N 40°38' E 014°22'1 2.8
2018-Feb-09 08:00N 40°38' E 014°20'1 0.5
2018-Feb-09 07:00N 40°38' E 014°20'1 1.8
2018-Feb-09 06:30N 40°39' E 014°21'4 0.4
2018-Feb-08 19:30N 40°41' E 014°17'  

Dump ship's entire track history